createdAt,value
2019-03-24T00:01:01.103Z,4.00
2019-03-24T00:03:31.258Z,4.00
2019-03-24T00:06:01.474Z,4.00
2019-03-24T00:08:31.610Z,4.10
2019-03-24T00:11:01.769Z,4.10
2019-03-24T00:13:31.869Z,4.10
2019-03-24T00:16:02.037Z,4.10
2019-03-24T00:18:32.187Z,4.10
2019-03-24T00:21:02.477Z,4.10
2019-03-24T00:23:32.571Z,4.10
2019-03-24T00:26:02.693Z,4.10
2019-03-24T00:28:32.797Z,4.10
2019-03-24T00:31:02.937Z,4.10
2019-03-24T00:33:33.075Z,4.00
2019-03-24T00:36:03.254Z,4.00
2019-03-24T00:38:33.333Z,3.90
2019-03-24T00:41:03.407Z,3.80
2019-03-24T00:43:33.537Z,3.80
2019-03-24T00:46:03.681Z,3.70
2019-03-24T00:48:39.797Z,3.60
2019-03-24T00:51:10.032Z,3.40
2019-03-24T00:53:40.149Z,3.20
2019-03-24T00:56:10.316Z,3.10
2019-03-24T00:58:40.455Z,3.00
2019-03-24T01:01:10.570Z,3.00
2019-03-24T01:03:45.779Z,2.90
2019-03-24T01:06:34.695Z,2.90
2019-03-24T01:09:06.975Z,2.90
2019-03-24T01:11:37.482Z,2.90
2019-03-24T01:14:07.744Z,2.90
2019-03-24T01:16:37.958Z,2.90
2019-03-24T01:19:08.412Z,2.90
2019-03-24T01:21:38.513Z,2.70
2019-03-24T01:24:08.657Z,2.70
2019-03-24T01:26:38.771Z,2.60
2019-03-24T01:29:08.943Z,2.60
2019-03-24T01:31:39.071Z,2.60
2019-03-24T01:34:09.199Z,2.50
2019-03-24T01:36:39.339Z,2.50
2019-03-24T01:39:09.455Z,2.60
2019-03-24T01:41:39.576Z,2.50
2019-03-24T01:44:09.667Z,2.50
2019-03-24T01:46:39.776Z,2.60
2019-03-24T01:49:09.931Z,2.60
2019-03-24T01:51:40.035Z,2.50
2019-03-24T01:54:10.137Z,2.50
2019-03-24T01:56:40.293Z,2.70
2019-03-24T01:59:10.435Z,2.50
2019-03-24T02:01:40.560Z,2.50
2019-03-24T02:04:10.671Z,2.40
2019-03-24T02:06:40.778Z,2.30
2019-03-24T02:09:11.173Z,2.20
2019-03-24T02:11:41.328Z,2.40
2019-03-24T02:14:11.438Z,2.30
2019-03-24T02:16:41.714Z,2.20
2019-03-24T02:19:11.875Z,2.10
2019-03-24T02:21:42.056Z,2.20
2019-03-24T02:24:12.164Z,2.20
2019-03-24T02:26:42.277Z,2.20
2019-03-24T02:29:12.457Z,2.30
2019-03-24T02:31:42.620Z,2.20
2019-03-24T02:34:12.752Z,2.30
2019-03-24T02:36:42.897Z,2.30
2019-03-24T02:39:13.090Z,2.30
2019-03-24T02:41:43.176Z,2.10
2019-03-24T02:44:13.331Z,2.10
2019-03-24T02:46:43.439Z,2.10
2019-03-24T02:49:13.545Z,2.10
2019-03-24T02:51:43.656Z,2.20
2019-03-24T02:54:13.852Z,2.00
2019-03-24T02:56:43.987Z,1.90
2019-03-24T02:59:14.325Z,1.90
2019-03-24T03:01:44.464Z,2.00
2019-03-24T03:04:14.570Z,1.90
2019-03-24T03:06:44.733Z,2.00
2019-03-24T03:09:14.960Z,2.10
2019-03-24T03:11:45.124Z,2.10
2019-03-24T03:14:15.251Z,2.20
2019-03-24T03:16:45.401Z,2.20
2019-03-24T03:19:15.513Z,2.20
2019-03-24T03:21:45.717Z,2.30
2019-03-24T03:24:15.825Z,2.20
2019-03-24T03:26:45.945Z,2.30
2019-03-24T03:29:16.095Z,2.30
2019-03-24T03:31:46.252Z,2.20
2019-03-24T03:34:16.430Z,2.00
2019-03-24T03:36:46.705Z,1.80
2019-03-24T03:39:17.099Z,1.70
2019-03-24T03:41:47.163Z,1.70
2019-03-24T03:44:17.336Z,1.50
2019-03-24T03:46:52.999Z,1.30
2019-03-24T03:49:19.275Z,1.40
2019-03-24T03:51:49.372Z,1.40
2019-03-24T03:54:19.504Z,1.50
2019-03-24T03:56:49.639Z,1.60
2019-03-24T03:59:19.693Z,1.40
2019-03-24T04:01:49.766Z,1.20
2019-03-24T04:04:19.877Z,1.20
2019-03-24T04:06:50.009Z,1.10
2019-03-24T04:09:20.153Z,1.00
2019-03-24T04:11:50.289Z,0.90
2019-03-24T04:14:20.392Z,1.00
2019-03-24T04:16:50.514Z,1.00
2019-03-24T04:19:20.658Z,1.10
2019-03-24T04:21:50.813Z,1.00
2019-03-24T04:24:20.925Z,0.90
2019-03-24T04:26:51.071Z,1.00
2019-03-24T04:29:21.208Z,1.00
2019-03-24T04:31:51.355Z,1.10
2019-03-24T04:34:21.474Z,1.10
2019-03-24T04:36:51.591Z,1.00
2019-03-24T04:39:21.725Z,0.90
2019-03-24T04:41:51.831Z,0.90
2019-03-24T04:44:40.691Z,1.00
2019-03-24T04:47:16.499Z,1.00
2019-03-24T04:49:42.645Z,1.00
2019-03-24T04:52:12.757Z,1.10
2019-03-24T04:54:42.979Z,1.00
2019-03-24T04:57:13.081Z,0.90
2019-03-24T04:59:43.222Z,1.00
2019-03-24T05:02:13.353Z,1.10
2019-03-24T05:04:43.483Z,1.30
2019-03-24T05:07:14.405Z,1.30
2019-03-24T05:09:44.735Z,1.30
2019-03-24T05:12:14.855Z,1.30
2019-03-24T05:14:45.040Z,1.30
2019-03-24T05:17:15.127Z,1.30
2019-03-24T05:19:45.241Z,1.40
2019-03-24T05:22:15.395Z,1.40
2019-03-24T05:24:45.544Z,1.50
2019-03-24T05:27:15.647Z,1.50
2019-03-24T05:29:45.762Z,1.60
2019-03-24T05:32:15.876Z,1.60
2019-03-24T05:34:46.110Z,1.60
2019-03-24T05:37:16.224Z,1.60
2019-03-24T05:39:46.433Z,1.70
2019-03-24T05:42:16.548Z,1.90
2019-03-24T05:44:46.734Z,2.00
2019-03-24T05:47:16.848Z,2.30
2019-03-24T05:49:47.064Z,2.50
2019-03-24T05:52:17.290Z,2.60
2019-03-24T05:54:47.535Z,2.60
2019-03-24T05:57:17.758Z,2.70
2019-03-24T06:00:07.016Z,2.80
2019-03-24T06:02:37.302Z,3.00
2019-03-24T06:05:07.960Z,3.20
2019-03-24T06:07:38.308Z,3.70
2019-03-24T06:10:08.866Z,4.00
2019-03-24T06:12:39.140Z,4.20
2019-03-24T06:15:09.570Z,4.50
2019-03-24T06:17:47.688Z,4.80
2019-03-24T06:20:12.554Z,4.90
2019-03-24T06:22:42.716Z,5.00
2019-03-24T06:25:13.127Z,5.30
2019-03-24T06:27:43.232Z,5.50
2019-03-24T06:30:13.540Z,5.60
2019-03-24T06:32:44.019Z,5.90
2019-03-24T06:35:14.325Z,6.30
2019-03-24T06:37:44.442Z,6.40
2019-03-24T06:40:15.072Z,6.20
2019-03-24T06:42:45.603Z,6.40
2019-03-24T06:45:15.985Z,6.40
2019-03-24T06:47:46.553Z,6.70
2019-03-24T06:50:16.613Z,6.70
2019-03-24T06:52:46.783Z,6.90
2019-03-24T06:55:17.006Z,7.00
2019-03-24T06:57:47.577Z,7.20
2019-03-24T07:00:17.953Z,7.30
2019-03-24T07:02:48.205Z,7.40
2019-03-24T07:05:18.336Z,7.70
2019-03-24T07:07:48.467Z,8.00
2019-03-24T07:10:18.591Z,8.30
2019-03-24T07:12:48.733Z,8.60
2019-03-24T07:15:18.897Z,9.00
2019-03-24T07:17:49.052Z,9.20
2019-03-24T07:20:19.189Z,9.60
2019-03-24T07:22:49.321Z,9.90
2019-03-24T07:25:19.476Z,10.40
2019-03-24T07:27:49.630Z,10.70
2019-03-24T07:30:20.139Z,11.00
2019-03-24T07:32:50.587Z,11.30
2019-03-24T07:35:20.811Z,11.50
2019-03-24T07:37:51.169Z,11.80
2019-03-24T07:40:21.331Z,12.20
2019-03-24T07:42:51.431Z,12.30
2019-03-24T07:45:21.673Z,12.50
2019-03-24T07:47:52.297Z,13.00
2019-03-24T07:50:22.629Z,13.30
2019-03-24T07:52:52.833Z,13.40
2019-03-24T07:55:22.979Z,13.40
2019-03-24T07:57:53.339Z,13.60
2019-03-24T08:00:42.199Z,13.80
2019-03-24T08:03:12.576Z,14.10
2019-03-24T08:05:42.673Z,14.50
2019-03-24T08:08:13.046Z,14.80
2019-03-24T08:10:43.322Z,14.90
2019-03-24T08:13:13.766Z,15.10
2019-03-24T08:15:44.172Z,15.30
2019-03-24T08:18:14.448Z,15.70
2019-03-24T08:20:44.860Z,16.00
2019-03-24T08:23:15.090Z,16.20
2019-03-24T08:25:45.323Z,16.50
2019-03-24T08:28:15.596Z,16.40
2019-03-24T08:30:45.966Z,16.70
2019-03-24T08:33:16.392Z,16.90
2019-03-24T08:35:46.611Z,17.70
2019-03-24T08:38:17.046Z,17.90
2019-03-24T08:40:47.372Z,17.60
2019-03-24T08:43:17.726Z,17.70
2019-03-24T08:45:47.912Z,17.50
2019-03-24T08:48:18.198Z,17.60
2019-03-24T08:50:48.358Z,17.90
2019-03-24T08:53:18.486Z,18.10
2019-03-24T08:55:48.804Z,18.20
2019-03-24T08:58:19.123Z,18.40
2019-03-24T09:00:49.315Z,18.20
2019-03-24T09:03:19.498Z,18.40
2019-03-24T09:05:49.925Z,18.60
2019-03-24T09:08:20.196Z,18.80
2019-03-24T09:10:50.392Z,19.10
2019-03-24T09:13:20.749Z,19.10
2019-03-24T09:15:51.114Z,19.30
2019-03-24T09:18:21.328Z,19.80
2019-03-24T09:20:51.459Z,19.80
2019-03-24T09:23:21.621Z,19.90
2019-03-24T09:25:51.790Z,19.70
2019-03-24T09:28:22.217Z,19.60
2019-03-24T09:30:54.653Z,19.60
2019-03-24T09:33:25.004Z,20.00
2019-03-24T09:35:55.503Z,20.10
2019-03-24T09:38:25.770Z,20.10
2019-03-24T09:40:55.979Z,20.20
2019-03-24T09:43:26.142Z,20.40
2019-03-24T09:45:56.596Z,20.40
2019-03-24T09:48:27.106Z,20.30
2019-03-24T09:50:57.377Z,20.10
2019-03-24T09:53:27.516Z,20.40
2019-03-24T09:55:57.956Z,20.50
2019-03-24T09:58:28.203Z,20.60
2019-03-24T10:00:58.506Z,21.00
2019-03-24T10:03:28.968Z,21.20
2019-03-24T10:05:59.318Z,21.40
2019-03-24T10:08:29.719Z,21.70
2019-03-24T10:11:00.054Z,21.60
2019-03-24T10:13:30.169Z,21.60
2019-03-24T10:16:00.531Z,21.30
2019-03-24T10:18:30.993Z,21.50
2019-03-24T10:21:01.362Z,21.40
2019-03-24T10:23:31.589Z,21.10
2019-03-24T10:26:01.959Z,21.50
2019-03-24T10:28:35.089Z,21.50
2019-03-24T10:31:05.455Z,21.50
2019-03-24T10:33:35.773Z,21.80
2019-03-24T10:36:06.146Z,21.60
2019-03-24T10:38:36.241Z,21.90
2019-03-24T10:41:08.455Z,22.10
2019-03-24T10:43:38.641Z,22.20
2019-03-24T10:46:08.767Z,22.30
2019-03-24T10:48:38.899Z,22.10
2019-03-24T10:51:09.066Z,22.10
2019-03-24T10:53:39.243Z,22.10
2019-03-24T10:56:09.385Z,21.60
2019-03-24T10:58:39.543Z,21.70
2019-03-24T11:01:09.731Z,22.20
2019-03-24T11:03:39.877Z,22.40
2019-03-24T11:06:10.017Z,22.50
2019-03-24T11:08:40.091Z,22.50
2019-03-24T11:11:10.222Z,22.90
2019-03-24T11:13:40.343Z,23.10
2019-03-24T11:16:10.537Z,23.20
2019-03-24T11:18:40.715Z,23.30
2019-03-24T11:21:10.849Z,23.40
2019-03-24T11:23:41.000Z,23.10
2019-03-24T11:26:11.146Z,23.00
2019-03-24T11:28:41.246Z,23.10
2019-03-24T11:31:11.365Z,23.00
2019-03-24T11:33:41.504Z,23.00
2019-03-24T11:36:11.630Z,23.00
2019-03-24T11:38:41.796Z,23.50
2019-03-24T11:41:12.157Z,23.80
2019-03-24T11:43:42.278Z,24.10
2019-03-24T11:46:12.661Z,24.10
2019-03-24T11:48:43.086Z,23.60
2019-03-24T11:51:13.609Z,23.50
2019-03-24T11:53:43.728Z,23.20
2019-03-24T11:56:13.933Z,22.90
2019-03-24T11:58:44.354Z,22.30
2019-03-24T12:01:14.975Z,22.50
2019-03-24T12:03:45.168Z,22.90
2019-03-24T12:06:15.348Z,22.80
2019-03-24T12:08:45.514Z,22.90
2019-03-24T12:11:16.087Z,23.00
2019-03-24T12:13:46.229Z,23.20
2019-03-24T12:16:16.383Z,23.00
2019-03-24T12:18:46.932Z,22.90
2019-03-24T12:21:17.080Z,23.10
2019-03-24T12:23:47.311Z,23.00
2019-03-24T12:26:17.467Z,22.80
2019-03-24T12:28:47.572Z,22.60
2019-03-24T12:31:17.741Z,22.80
2019-03-24T12:33:47.881Z,22.80
2019-03-24T12:36:18.038Z,22.70
2019-03-24T12:38:48.202Z,22.60
2019-03-24T12:41:18.342Z,22.70
2019-03-24T12:43:48.468Z,22.60
2019-03-24T12:46:18.754Z,22.60
2019-03-24T12:48:48.854Z,22.50
2019-03-24T12:51:19.102Z,22.40
2019-03-24T12:53:49.467Z,22.30
2019-03-24T12:56:19.582Z,22.30
2019-03-24T12:58:49.745Z,22.40
2019-03-24T13:01:19.823Z,22.20
2019-03-24T13:03:49.950Z,22.20
2019-03-24T13:06:20.076Z,22.20
2019-03-24T13:08:50.252Z,22.10
2019-03-24T13:11:20.369Z,22.30
2019-03-24T13:13:50.509Z,22.30
2019-03-24T13:16:20.674Z,22.40
2019-03-24T13:18:50.872Z,22.70
2019-03-24T13:21:21.166Z,22.70
2019-03-24T13:23:51.519Z,22.80
2019-03-24T13:26:21.615Z,22.60
2019-03-24T13:28:51.791Z,22.10
2019-03-24T13:31:40.704Z,21.80
2019-03-24T13:34:11.155Z,21.80
2019-03-24T13:36:41.488Z,21.80
2019-03-24T13:39:11.811Z,21.60
2019-03-24T13:41:42.250Z,21.70
2019-03-24T13:44:12.533Z,21.80
2019-03-24T13:46:42.687Z,21.90
2019-03-24T13:49:12.837Z,21.70
2019-03-24T13:52:01.679Z,21.50
2019-03-24T13:54:31.854Z,21.60
2019-03-24T13:57:01.993Z,21.80
2019-03-24T13:59:32.172Z,21.70
2019-03-24T14:02:02.341Z,21.70
2019-03-24T14:04:32.739Z,21.80
2019-03-24T14:07:02.869Z,21.60
2019-03-24T14:09:32.987Z,21.30
2019-03-24T14:12:03.125Z,21.00
2019-03-24T14:14:33.259Z,20.70
2019-03-24T14:17:03.584Z,20.40
2019-03-24T14:19:34.503Z,20.10
2019-03-24T14:22:04.969Z,20.00
2019-03-24T14:24:35.264Z,20.40
2019-03-24T14:27:05.443Z,20.50
2019-03-24T14:29:35.616Z,20.40
2019-03-24T14:32:05.725Z,20.40
2019-03-24T14:34:35.967Z,20.10
2019-03-24T14:37:06.489Z,20.00
2019-03-24T14:39:36.735Z,19.80
2019-03-24T14:42:07.131Z,20.00
2019-03-24T14:44:37.565Z,19.80
2019-03-24T14:47:07.967Z,19.60
2019-03-24T14:49:38.309Z,19.50
2019-03-24T14:52:08.977Z,19.40
2019-03-24T14:54:39.396Z,19.20
2019-03-24T14:57:09.683Z,19.20
2019-03-24T14:59:40.019Z,19.10
2019-03-24T15:02:10.238Z,19.10
2019-03-24T15:04:40.692Z,19.10
2019-03-24T15:07:11.193Z,19.00
2019-03-24T15:09:41.422Z,18.90
2019-03-24T15:12:11.603Z,18.80
2019-03-24T15:14:41.991Z,18.70
2019-03-24T15:17:12.455Z,18.60
2019-03-24T15:19:42.705Z,18.70
2019-03-24T15:22:13.248Z,18.70
2019-03-24T15:24:43.673Z,18.70
2019-03-24T15:27:14.012Z,18.50
2019-03-24T15:29:44.301Z,18.40
2019-03-24T15:32:14.432Z,18.30
2019-03-24T15:34:44.741Z,18.30
2019-03-24T15:37:15.062Z,18.30
2019-03-24T15:39:45.426Z,18.10
2019-03-24T15:42:25.359Z,18.00
2019-03-24T15:44:55.664Z,17.90
2019-03-24T15:47:26.002Z,18.00
2019-03-24T15:49:58.429Z,18.00
2019-03-24T15:52:33.523Z,17.90
2019-03-24T15:55:04.074Z,17.80
2019-03-24T15:57:34.440Z,17.80
2019-03-24T16:00:06.235Z,17.70
2019-03-24T16:02:36.571Z,17.60
2019-03-24T16:05:07.031Z,17.60
2019-03-24T16:07:37.287Z,17.50
2019-03-24T16:10:07.534Z,17.50
2019-03-24T16:12:37.960Z,17.40
2019-03-24T16:15:08.738Z,17.40
2019-03-24T16:17:38.992Z,17.30
2019-03-24T16:20:09.585Z,17.20
2019-03-24T16:22:40.720Z,17.10
2019-03-24T16:25:11.064Z,17.20
2019-03-24T16:27:41.617Z,17.10
2019-03-24T16:30:12.292Z,17.00
2019-03-24T16:32:42.626Z,17.00
2019-03-24T16:35:12.838Z,16.90
2019-03-24T16:37:43.484Z,16.80
2019-03-24T16:40:14.457Z,16.70
2019-03-24T16:42:44.636Z,16.60
2019-03-24T16:45:15.145Z,16.60
2019-03-24T16:47:45.532Z,16.50
2019-03-24T16:50:15.881Z,16.40
2019-03-24T16:52:46.123Z,16.40
2019-03-24T16:55:16.465Z,16.30
2019-03-24T16:57:46.996Z,16.30
2019-03-24T17:00:17.590Z,16.20
2019-03-24T17:02:47.736Z,16.10
2019-03-24T17:05:18.084Z,15.90
2019-03-24T17:08:07.040Z,15.80
2019-03-24T17:10:37.288Z,15.70
2019-03-24T17:13:07.701Z,15.60
2019-03-24T17:15:37.998Z,15.50
2019-03-24T17:18:08.244Z,15.40
2019-03-24T17:20:38.621Z,15.30
2019-03-24T17:23:08.954Z,15.20
2019-03-24T17:25:39.111Z,15.10
2019-03-24T17:28:09.513Z,15.00
2019-03-24T17:30:39.749Z,14.80
2019-03-24T17:33:10.068Z,14.60
2019-03-24T17:35:40.320Z,14.50
2019-03-24T17:38:10.573Z,14.30
2019-03-24T17:40:40.972Z,14.10
2019-03-24T17:43:11.337Z,13.90
2019-03-24T17:45:41.695Z,13.60
2019-03-24T17:48:12.030Z,13.50
2019-03-24T17:50:42.294Z,13.30
2019-03-24T17:53:12.651Z,13.10
2019-03-24T17:55:42.829Z,12.90
2019-03-24T17:58:20.463Z,12.80
2019-03-24T18:00:53.410Z,12.60
2019-03-24T18:03:23.545Z,12.50
2019-03-24T18:05:53.728Z,12.30
2019-03-24T18:08:23.851Z,12.10
2019-03-24T18:10:53.933Z,11.90
2019-03-24T18:13:24.061Z,11.80
2019-03-24T18:15:54.223Z,11.70
2019-03-24T18:18:24.335Z,11.60
2019-03-24T18:20:54.539Z,11.50
2019-03-24T18:23:24.770Z,11.40
2019-03-24T18:25:54.937Z,11.20
2019-03-24T18:28:25.120Z,11.20
2019-03-24T18:30:55.253Z,11.30
2019-03-24T18:33:25.451Z,11.30
2019-03-24T18:35:55.811Z,11.40
2019-03-24T18:38:27.575Z,11.50
2019-03-24T18:40:57.691Z,11.60
2019-03-24T18:43:28.306Z,11.30
2019-03-24T18:45:58.602Z,11.20
2019-03-24T18:48:29.327Z,11.00
2019-03-24T18:51:07.163Z,11.00
2019-03-24T18:53:37.334Z,11.10
2019-03-24T18:56:07.510Z,11.10
2019-03-24T18:58:37.749Z,11.10
2019-03-24T19:01:08.254Z,11.00
2019-03-24T19:03:38.507Z,11.10
2019-03-24T19:06:08.735Z,11.10
2019-03-24T19:08:39.211Z,11.00
2019-03-24T19:11:09.602Z,10.90
2019-03-24T19:13:40.044Z,10.90
2019-03-24T19:16:10.388Z,10.90
2019-03-24T19:18:40.718Z,10.80
2019-03-24T19:21:10.962Z,10.70
2019-03-24T19:23:41.469Z,10.60
2019-03-24T19:26:12.038Z,10.60
2019-03-24T19:28:42.633Z,10.40
2019-03-24T19:31:13.220Z,10.30
2019-03-24T19:33:43.893Z,10.30
2019-03-24T19:36:14.545Z,10.30
2019-03-24T19:38:45.215Z,10.40
2019-03-24T19:41:15.697Z,10.60
2019-03-24T19:43:46.016Z,10.80
2019-03-24T19:46:16.480Z,11.00
2019-03-24T19:48:46.804Z,11.20
2019-03-24T19:51:17.093Z,11.40
2019-03-24T19:53:47.637Z,11.40
2019-03-24T19:56:18.160Z,11.50
2019-03-24T19:58:48.561Z,11.60
2019-03-24T20:01:18.943Z,11.70
2019-03-24T20:03:49.575Z,11.80
2019-03-24T20:06:20.093Z,11.80
2019-03-24T20:08:51.014Z,11.90
2019-03-24T20:11:21.546Z,12.00
2019-03-24T20:13:52.072Z,12.10
2019-03-24T20:16:22.435Z,12.10
2019-03-24T20:19:11.296Z,12.20
2019-03-24T20:21:41.722Z,12.20
2019-03-24T20:24:12.149Z,12.20
2019-03-24T20:26:42.660Z,12.20
2019-03-24T20:29:13.107Z,12.20
2019-03-24T20:31:43.610Z,12.20
2019-03-24T20:34:14.165Z,12.20
2019-03-24T20:36:44.680Z,12.20
2019-03-24T20:39:15.207Z,12.20
2019-03-24T20:41:45.688Z,12.20
2019-03-24T20:44:16.179Z,12.10
2019-03-24T20:47:05.022Z,12.10
2019-03-24T20:49:35.443Z,12.20
2019-03-24T20:52:05.587Z,12.20
2019-03-24T20:54:35.625Z,12.10
2019-03-24T20:57:05.897Z,12.00
2019-03-24T20:59:36.213Z,12.00
2019-03-24T21:02:06.443Z,12.00
2019-03-24T21:04:38.435Z,12.00
2019-03-24T21:07:08.639Z,12.00
2019-03-24T21:09:38.949Z,12.00
2019-03-24T21:12:11.501Z,12.00
2019-03-24T21:14:41.853Z,11.90
2019-03-24T21:17:12.159Z,11.80
2019-03-24T21:19:42.476Z,11.80
2019-03-24T21:22:12.631Z,11.80
2019-03-24T21:24:42.765Z,11.70
2019-03-24T21:27:12.974Z,11.70
2019-03-24T21:29:43.167Z,11.60
2019-03-24T21:32:13.285Z,11.60
2019-03-24T21:34:43.387Z,11.60
2019-03-24T21:37:13.537Z,11.60
2019-03-24T21:39:43.673Z,11.60
2019-03-24T21:42:13.812Z,11.60
2019-03-24T21:44:43.943Z,11.50
2019-03-24T21:47:14.050Z,11.50
2019-03-24T21:49:44.342Z,11.50
2019-03-24T21:52:14.529Z,11.40
2019-03-24T21:54:44.676Z,11.30
2019-03-24T21:57:14.831Z,11.30
2019-03-24T21:59:44.977Z,11.20
2019-03-24T22:02:15.179Z,11.10
2019-03-24T22:04:45.375Z,11.10
2019-03-24T22:07:15.543Z,11.00
2019-03-24T22:09:45.677Z,11.00
2019-03-24T22:12:15.833Z,10.90
2019-03-24T22:14:45.991Z,10.90
2019-03-24T22:17:16.123Z,10.80
2019-03-24T22:19:46.246Z,10.70
2019-03-24T22:22:16.434Z,10.70
2019-03-24T22:24:46.559Z,10.60
2019-03-24T22:27:16.694Z,10.60
2019-03-24T22:29:46.852Z,10.60
2019-03-24T22:32:17.005Z,10.60
2019-03-24T22:34:47.118Z,10.50
2019-03-24T22:37:17.235Z,10.50
2019-03-24T22:39:47.371Z,10.40
2019-03-24T22:42:17.482Z,10.40
2019-03-24T22:44:47.648Z,10.40
2019-03-24T22:47:17.766Z,10.40
2019-03-24T22:49:47.960Z,10.30
2019-03-24T22:52:18.107Z,10.30
2019-03-24T22:54:48.258Z,10.20
2019-03-24T22:57:18.397Z,10.30
2019-03-24T22:59:48.635Z,10.20
2019-03-24T23:02:18.722Z,10.20
2019-03-24T23:04:48.845Z,10.10
2019-03-24T23:07:18.999Z,10.10
2019-03-24T23:09:49.100Z,10.10
2019-03-24T23:12:19.246Z,10.00
2019-03-24T23:14:49.384Z,10.00
2019-03-24T23:17:19.514Z,10.00
2019-03-24T23:19:49.612Z,10.00
2019-03-24T23:22:19.764Z,10.00
2019-03-24T23:24:49.859Z,10.00
2019-03-24T23:27:20.036Z,9.90
2019-03-24T23:29:50.154Z,9.80
2019-03-24T23:32:20.314Z,9.80
2019-03-24T23:34:50.459Z,9.70
2019-03-24T23:37:20.609Z,9.70
2019-03-24T23:39:50.656Z,9.60
2019-03-24T23:42:20.956Z,9.50
2019-03-24T23:44:51.064Z,9.50
2019-03-24T23:47:21.212Z,9.50
2019-03-24T23:49:51.356Z,9.50
2019-03-24T23:52:21.474Z,9.50
2019-03-24T23:54:51.619Z,9.50
2019-03-24T23:57:21.716Z,9.50
2019-03-24T23:59:51.892Z,9.40
